Time;durP1;ratioP1;P1;durP2;ratioP2;P2;SDS_P1;SDS_P2;PMS_P1;PMS_P2;Temp;Humidity;BMP_temperature;BMP_pressure;BME280_temperature;BME280_humidity;BME280_pressure;Samples;Min_cycle;Max_cycle;Signal;HPM_P1;HPM_P2
2022/11/25 00:00:32;;;;;;;102.02;41.25;;;;;;;2.77;90.10;98485.51;1644076;87;26381;-80
2022/11/25 00:02:58;;;;;;;98.37;39.98;;;;;;;2.80;89.97;98489.04;1644232;87;25767;-80
2022/11/25 00:05:27;;;;;;;90.38;38.30;;;;;;;2.79;89.76;98496.07;1644484;87;25646;-80
2022/11/25 00:07:53;;;;;;;101.15;39.48;;;;;;;2.87;90.51;98486.88;1644058;87;27567;-81
2022/11/25 00:10:19;;;;;;;98.40;39.13;;;;;;;2.93;90.11;98486.91;1644256;87;25777;-81
2022/11/25 00:12:46;;;;;;;105.50;41.10;;;;;;;2.96;90.05;98490.41;1644416;87;25644;-80
2022/11/25 00:15:12;;;;;;;102.72;40.63;;;;;;;2.98;90.02;98494.49;1644382;87;25749;-81
2022/11/25 00:17:39;;;;;;;131.90;48.28;;;;;;;2.98;89.97;98497.73;1644517;86;25480;-79
2022/11/25 00:20:07;;;;;;;136.28;52.43;;;;;;;2.98;90.07;98501.80;1644588;87;28086;-81
2022/11/25 00:22:33;;;;;;;129.15;48.65;;;;;;;2.97;90.06;98499.61;1644272;87;25650;-81
2022/11/25 00:25:00;;;;;;;123.35;47.17;;;;;;;2.97;90.13;98492.05;1644427;87;25597;-81
2022/11/25 00:27:26;;;;;;;141.55;50.95;;;;;;;2.94;90.12;98498.00;1656499;85;25676;-81
2022/11/25 00:29:52;;;;;;;125.78;47.15;;;;;;;2.95;90.17;98501.80;1663882;86;25496;-81
2022/11/25 00:32:19;;;;;;;140.35;51.60;;;;;;;2.97;90.27;98494.77;1664002;86;27550;-80
2022/11/25 00:34:45;;;;;;;110.17;43.00;;;;;;;3.01;90.25;98497.20;1664035;86;25803;-80
2022/11/25 00:37:11;;;;;;;118.90;47.30;;;;;;;3.04;90.26;98502.08;1665055;86;25592;-81
2022/11/25 00:39:38;;;;;;;115.57;45.15;;;;;;;3.06;90.20;98505.34;1666007;86;26346;-82
2022/11/25 00:44:49;;;;;;;103.25;42.55;;;;;;;3.12;90.24;98501.56;1665612;86;25682;-82
2022/11/25 00:47:19;;;;;;;97.35;40.65;;;;;;;3.13;90.23;98509.95;1665972;86;25632;-82
2022/11/25 00:49:49;;;;;;;106.40;43.00;;;;;;;3.16;90.29;98507.23;1665838;86;25631;-82
2022/11/25 00:52:19;;;;;;;112.32;42.98;;;;;;;3.22;90.35;98507.52;1665861;86;25686;-83
2022/11/25 00:54:47;;;;;;;98.67;42.83;;;;;;;3.23;89.94;98519.17;1666197;86;25696;-83
2022/11/25 00:57:15;;;;;;;113.92;47.40;;;;;;;3.23;90.10;98515.91;1665555;86;27417;-83
2022/11/25 00:59:42;;;;;;;101.82;45.05;;;;;;;3.30;90.47;98510.77;1665763;86;25613;-82
2022/11/25 01:02:11;;;;;;;104.00;44.25;;;;;;;3.31;90.08;98509.15;1665900;86;25668;-84
2022/11/25 01:04:37;;;;;;;98.97;39.38;;;;;;;3.33;90.16;98515.66;1665835;86;26415;-84
2022/11/25 01:07:04;;;;;;;93.42;39.50;;;;;;;3.37;90.38;98518.12;1666014;84;25484;-82
2022/11/25 01:09:31;;;;;;;95.87;40.80;;;;;;;3.37;90.15;98518.12;1665773;86;27504;-84
2022/11/25 01:11:57;;;;;;;81.47;37.08;;;;;;;3.34;90.17;98515.38;1665940;86;25726;-84
2022/11/25 01:14:24;;;;;;;98.58;39.85;;;;;;;3.31;90.04;98516.48;1665812;86;25493;-85
2022/11/25 01:16:51;;;;;;;86.20;37.28;;;;;;;3.28;90.39;98523.79;1665999;86;26363;-84
2022/11/25 01:19:18;;;;;;;83.95;37.53;;;;;;;3.30;90.46;98521.08;1665954;85;25487;-83
2022/11/25 01:21:46;;;;;;;83.25;36.48;;;;;;;3.30;90.29;98519.72;1665893;86;27443;-83
2022/11/25 01:24:14;;;;;;;77.82;34.23;;;;;;;3.32;90.37;98516.75;1665813;84;25661;-84
2022/11/25 01:26:42;;;;;;;88.12;35.58;;;;;;;3.30;90.23;98518.90;1664718;84;25441;-84
2022/11/25 01:29:16;;;;;;;75.55;32.48;;;;;;;3.33;90.49;98516.48;1658792;86;25769;-81
2022/11/25 01:31:43;;;;;;;78.57;34.03;;;;;;;3.37;90.68;98512.14;1658610;86;25434;-84
2022/11/25 01:34:22;;;;;;;86.12;37.15;;;;;;;3.45;90.86;98513.50;1658533;86;27442;-84
2022/11/25 01:36:48;;;;;;;82.65;37.40;;;;;;;3.50;90.51;98518.11;1658414;86;25767;-83
2022/11/25 01:39:22;;;;;;;88.27;39.78;;;;;;;3.54;90.53;98510.27;1658657;85;25493;-85
2022/11/25 01:41:49;;;;;;;86.05;38.90;;;;;;;3.58;90.46;98512.70;1649395;86;25691;-82
2022/11/25 01:44:28;;;;;;;87.12;40.30;;;;;;;3.60;90.22;98513.25;1644306;87;25802;-84
2022/11/25 01:47:17;;;;;;;76.57;34.05;;;;;;;3.62;90.36;98515.13;1644479;86;27446;-84
2022/11/25 01:50:01;;;;;;;69.55;31.82;;;;;;;3.62;90.03;98517.30;1644377;86;25609;-85
2022/11/25 01:52:33;;;;;;;70.10;31.90;;;;;;;3.69;90.63;98518.40;1644486;86;25413;-85
2022/11/25 01:55:16;;;;;;;67.45;30.72;;;;;;;3.71;90.49;98522.98;1644036;87;26442;-84
2022/11/25 01:57:53;;;;;;;75.17;34.95;;;;;;;3.74;90.21;98518.91;1644491;87;25739;-87
2022/11/25 02:00:21;;;;;;;71.85;32.45;;;;;;;3.72;90.07;98522.45;1644567;87;27391;-86
2022/11/25 02:02:50;;;;;;;73.07;32.05;;;;;;;3.68;90.10;98520.81;1644328;87;25256;-83
2022/11/25 02:05:21;;;;;;;78.50;35.13;;;;;;;3.67;90.17;98519.73;1644382;87;25294;-84
2022/11/25 02:07:50;;;;;;;87.22;39.48;;;;;;;3.67;90.20;98517.84;1641779;87;25779;-81
2022/11/25 02:10:25;;;;;;;84.60;37.75;;;;;;;3.69;90.20;98520.29;1644503;86;25674;-79
2022/11/25 02:12:52;;;;;;;77.00;36.88;;;;;;;3.67;89.91;98524.63;1644232;87;27390;-80
2022/11/25 02:15:20;;;;;;;78.72;35.68;;;;;;;3.67;90.09;98528.69;1644415;87;25700;-78
2022/11/25 02:17:47;;;;;;;77.58;35.10;;;;;;;3.67;90.06;98524.63;1644436;87;25471;-79
2022/11/25 02:20:20;;;;;;;79.30;32.42;;;;;;;3.66;90.02;98523.01;1623470;87;25769;-79
2022/11/25 02:23:27;;;;;;;73.83;31.65;;;;;;;3.67;90.06;98524.63;1644389;87;25680;-80
2022/11/25 02:25:54;;;;;;;73.20;32.65;;;;;;;3.63;89.93;98518.92;1642089;87;27392;-79
2022/11/25 02:28:27;;;;;;;72.82;33.98;;;;;;;3.62;90.03;98521.38;1643997;85;25697;-79
2022/11/25 02:30:54;;;;;;;69.97;32.38;;;;;;;3.63;89.98;98524.34;1623610;87;25725;-80
2022/11/25 02:33:21;;;;;;;67.75;31.45;;;;;;;3.65;89.96;98530.84;1644467;87;25738;-79
2022/11/25 02:36:00;;;;;;;67.12;31.93;;;;;;;3.64;89.94;98533.30;1644400;87;25686;-79
2022/11/25 02:38:40;;;;;;;74.17;31.77;;;;;;;3.62;89.77;98533.56;1644332;87;27448;-79
2022/11/25 02:41:24;;;;;;;73.28;32.40;;;;;;;3.60;90.07;98535.72;1644557;87;25645;-79
2022/11/25 02:43:50;;;;;;;71.85;31.10;;;;;;;3.59;90.26;98530.04;1644285;86;25587;-80
2022/11/25 02:46:22;;;;;;;71.87;32.13;;;;;;;3.57;90.42;98532.20;1644463;87;25811;-81
2022/11/25 02:48:48;;;;;;;69.30;30.90;;;;;;;3.54;90.43;98530.03;1623735;87;25696;-81
2022/11/25 02:51:19;;;;;;;68.55;31.17;;;;;;;3.53;90.50;98532.47;1644403;87;27565;-79
2022/11/25 02:53:45;;;;;;;66.05;31.00;;;;;;;3.53;90.52;98536.53;1644462;86;25541;-80
2022/11/25 02:56:14;;;;;;;67.60;30.32;;;;;;;3.58;90.73;98536.55;1644162;87;25681;-78
2022/11/25 02:58:41;;;;;;;60.15;29.05;;;;;;;3.62;90.69;98536.81;1644307;87;25793;-78
2022/11/25 03:01:08;;;;;;;76.97;34.00;;;;;;;3.63;90.67;98536.53;1644032;87;25611;-77
2022/11/25 03:03:35;;;;;;;74.85;30.08;;;;;;;3.70;90.82;98540.88;1643979;87;27624;-76
2022/11/25 03:06:02;;;;;;;71.77;30.82;;;;;;;3.75;90.76;98537.61;1644321;87;25661;-78
2022/11/25 03:08:28;;;;;;;66.57;31.10;;;;;;;3.78;90.55;98530.03;1644317;87;25668;-77
2022/11/25 03:10:55;;;;;;;66.50;29.00;;;;;;;3.83;90.49;98536.83;1644333;87;25841;-78
2022/11/25 03:13:22;;;;;;;65.95;30.05;;;;;;;3.85;90.35;98541.41;1644542;87;25692;-78
2022/11/25 03:15:49;;;;;;;63.87;29.40;;;;;;;3.88;90.26;98534.09;1644332;87;27492;-76
2022/11/25 03:18:15;;;;;;;59.33;28.27;;;;;;;3.87;90.00;98540.61;1644385;87;25698;-77
2022/11/25 03:20:41;;;;;;;67.40;30.55;;;;;;;3.87;90.10;98537.89;1644378;87;25681;-77
2022/11/25 03:23:08;;;;;;;68.60;31.33;;;;;;;3.88;90.47;98538.98;1644345;87;25671;-77
2022/11/25 03:25:35;;;;;;;69.80;30.62;;;;;;;3.94;90.66;98548.48;1644421;87;25601;-77
2022/11/25 03:28:02;;;;;;;66.67;29.50;;;;;;;3.95;90.30;98543.31;1643385;85;27495;-77
2022/11/25 03:30:29;;;;;;;61.53;28.32;;;;;;;3.92;90.45;98554.17;1658081;86;25613;-77
2022/11/25 03:32:56;;;;;;;68.78;29.50;;;;;;;3.88;90.31;98553.89;1665523;86;25478;-77
2022/11/25 03:35:22;;;;;;;65.42;28.52;;;;;;;3.88;90.48;98553.06;1665682;86;25715;-77
2022/11/25 03:37:48;;;;;;;65.17;30.08;;;;;;;3.88;90.47;98558.48;1665551;86;25503;-77
2022/11/25 03:40:16;;;;;;;61.33;29.45;;;;;;;3.88;90.53;98553.89;1665479;86;27425;-77
2022/11/25 03:42:44;;;;;;;62.30;30.17;;;;;;;3.89;90.44;98563.64;1665416;86;25707;-78
2022/11/25 03:45:13;;;;;;;65.17;30.12;;;;;;;3.91;90.55;98557.95;1665474;86;25551;-77
2022/11/25 03:47:43;;;;;;;59.33;28.30;;;;;;;3.91;90.40;98555.23;1665456;86;26578;-78
2022/11/25 03:50:13;;;;;;;63.48;29.32;;;;;;;3.93;90.35;98555.79;1665728;86;25444;-78
2022/11/25 03:52:39;;;;;;;67.00;29.98;;;;;;;3.91;90.27;98555.80;1665497;86;27481;-78
2022/11/25 03:55:07;;;;;;;61.70;28.27;;;;;;;3.91;90.40;98555.23;1665602;86;25709;-77
2022/11/25 03:57:34;;;;;;;61.15;27.22;;;;;;;3.95;90.45;98558.23;1665532;86;25664;-78
2022/11/25 04:00:01;;;;;;;49.20;24.45;;;;;;;3.95;90.21;98558.23;1665718;86;25740;-78
2022/11/25 04:02:27;;;;;;;59.63;26.75;;;;;;;4.00;90.55;98558.23;1665789;86;25443;-78
2022/11/25 04:04:53;;;;;;;59.15;28.32;;;;;;;4.03;90.75;98554.95;1665643;86;27501;-76
2022/11/25 04:07:20;;;;;;;59.18;29.90;;;;;;;4.04;90.52;98555.77;1665693;86;25711;-74
2022/11/25 04:09:46;;;;;;;62.90;28.50;;;;;;;4.00;90.44;98559.03;1665736;86;25620;-74
2022/11/25 04:14:57;;;;;;;62.88;27.98;;;;;;;3.89;90.29;98565.55;1665432;86;25428;-74
2022/11/25 04:17:23;;;;;;;63.83;30.17;;;;;;;3.87;90.45;98565.00;1665829;86;28088;-74
2022/11/25 04:19:50;;;;;;;56.65;27.02;;;;;;;3.88;90.59;98557.95;1665635;86;25843;-73
2022/11/25 04:22:16;;;;;;;70.47;29.07;;;;;;;3.88;90.27;98566.63;1665712;86;25648;-74
2022/11/25 04:24:42;;;;;;;76.07;34.45;;;;;;;3.91;90.73;98564.73;1665695;86;25674;-73
2022/11/25 04:27:09;;;;;;;65.00;29.45;;;;;;;3.96;90.72;98571.52;1665707;86;25716;-74
2022/11/25 04:29:35;;;;;;;59.03;27.80;;;;;;;4.00;90.53;98570.44;1667500;84;27422;-74
2022/11/25 04:32:01;;;;;;;62.85;27.58;;;;;;;4.02;90.48;98568.25;1665875;86;25443;-74
2022/11/25 04:34:27;;;;;;;63.28;29.82;;;;;;;4.04;90.35;98572.05;1665968;86;25676;-74
2022/11/25 04:36:54;;;;;;;70.00;33.28;;;;;;;4.08;90.46;98569.05;1665837;86;25668;-74
2022/11/25 04:39:20;;;;;;;63.75;28.40;;;;;;;4.11;90.35;98567.97;1665981;86;25753;-75
2022/11/25 04:41:46;;;;;;;53.40;26.90;;;;;;;4.20;90.56;98575.56;1665869;86;28162;-75
2022/11/25 04:44:13;;;;;;;55.98;26.45;;;;;;;4.24;90.23;98572.03;1665940;86;25548;-75
2022/11/25 04:46:42;;;;;;;56.90;26.27;;;;;;;4.22;89.86;98566.06;1665927;86;25608;-75
2022/11/25 04:49:10;;;;;;;51.45;25.52;;;;;;;4.18;89.82;98575.84;1665808;86;25737;-75
2022/11/25 04:51:36;;;;;;;47.45;25.82;;;;;;;4.16;89.71;98582.07;1665976;86;25439;-75
2022/11/25 04:54:02;;;;;;;60.52;27.48;;;;;;;4.09;89.71;98585.05;1666016;86;28087;-75
2022/11/25 04:56:29;;;;;;;58.08;28.23;;;;;;;4.04;89.91;98582.36;1665982;86;25750;-76
2022/11/25 05:01:26;;;;;;;61.75;30.00;;;;;;;3.97;90.07;98594.82;1642197;87;25744;-76
2022/11/25 05:03:53;;;;;;;58.63;28.38;;;;;;;3.92;90.00;98594.84;1642299;87;25678;-76
2022/11/25 05:06:19;;;;;;;57.88;28.85;;;;;;;3.90;90.10;98597.00;1642250;87;27518;-78
2022/11/25 05:08:48;;;;;;;53.68;27.27;;;;;;;3.85;89.94;98600.52;1642280;87;25749;-76
2022/11/25 05:11:15;;;;;;;56.65;27.27;;;;;;;3.92;90.55;98602.97;1642291;87;25748;-76
2022/11/25 05:13:41;;;;;;;52.73;26.62;;;;;;;3.98;90.59;98603.78;1642338;87;25817;-78
2022/11/25 05:16:08;;;;;;;57.45;26.73;;;;;;;4.04;90.59;98608.65;1642257;87;25819;-77
2022/11/25 05:18:35;;;;;;;54.13;25.68;;;;;;;4.06;90.34;98614.06;1642232;87;27459;-77
2022/11/25 05:21:03;;;;;;;48.65;23.67;;;;;;;4.10;90.42;98611.10;1642172;87;25815;-77
2022/11/25 05:23:43;;;;;;;48.00;23.60;;;;;;;4.11;90.09;98615.97;1642426;87;25684;-78
2022/11/25 05:26:10;;;;;;;49.85;23.87;;;;;;;4.09;90.02;98614.87;1642280;87;26486;-79
2022/11/25 05:28:37;;;;;;;52.03;24.47;;;;;;;4.10;89.90;98619.77;1636373;87;25516;-77
2022/11/25 05:31:03;;;;;;;51.40;23.70;;;;;;;4.11;89.87;98621.39;1624973;88;27608;-79
2022/11/25 05:33:30;;;;;;;57.20;27.20;;;;;;;4.10;89.86;98618.41;1612035;89;25507;-79
2022/11/25 05:35:59;;;;;;;60.78;28.83;;;;;;;4.11;89.81;98620.03;1612031;89;25543;-79
2022/11/25 05:38:26;;;;;;;55.95;28.15;;;;;;;4.07;89.73;98622.50;1622879;87;25849;-79
2022/11/25 05:40:55;;;;;;;45.58;23.27;;;;;;;4.03;89.80;98620.03;1645043;87;25409;-80
2022/11/25 05:43:22;;;;;;;44.55;22.17;;;;;;;3.98;89.81;98624.12;1648260;86;28104;-79
2022/11/25 05:45:48;;;;;;;45.83;22.65;;;;;;;3.94;89.74;98624.39;1648818;87;25787;-80
2022/11/25 05:48:14;;;;;;;46.37;21.57;;;;;;;3.89;89.77;98626.00;1648756;87;25737;-79
2022/11/25 05:50:41;;;;;;;43.68;21.05;;;;;;;3.88;89.73;98623.55;1648712;87;26295;-80
2022/11/25 05:53:07;;;;;;;47.83;22.35;;;;;;;3.89;89.63;98623.28;1648897;87;25470;-78
2022/11/25 05:55:33;;;;;;;45.12;22.45;;;;;;;3.89;89.66;98620.58;1648660;87;28124;-79
2022/11/25 05:58:01;;;;;;;51.37;23.25;;;;;;;3.87;89.67;98628.19;1642840;87;25534;-78
2022/11/25 06:00:28;;;;;;;45.30;22.32;;;;;;;3.90;89.74;98628.17;1644159;87;25479;-79
2022/11/25 06:02:54;;;;;;;53.30;24.10;;;;;;;3.91;89.69;98627.08;1648302;87;25688;-80
2022/11/25 06:05:21;;;;;;;47.55;22.25;;;;;;;3.88;89.42;98625.73;1648650;87;25669;-80
2022/11/25 06:07:47;;;;;;;46.10;23.07;;;;;;;3.90;89.41;98630.89;1648743;87;27432;-77
2022/11/25 06:10:15;;;;;;;45.43;21.80;;;;;;;3.91;89.43;98633.06;1648509;87;25609;-79
2022/11/25 06:12:41;;;;;;;43.35;20.90;;;;;;;3.92;89.36;98631.44;1648654;86;25495;-80
2022/11/25 06:15:09;;;;;;;42.88;20.75;;;;;;;3.95;89.33;98639.03;1648659;87;26322;-80
2022/11/25 06:17:36;;;;;;;44.85;21.62;;;;;;;3.95;89.46;98636.86;1648655;86;25529;-81
2022/11/25 06:20:05;;;;;;;33.02;15.55;;;;;;;3.92;89.35;98631.44;1648327;87;27444;-82
2022/11/25 06:22:32;;;;;;;38.05;18.37;;;;;;;3.89;89.20;98635.48;1648551;87;25444;-81
2022/11/25 06:24:58;;;;;;;39.27;19.82;;;;;;;3.85;89.24;98639.00;1648534;87;25513;-82
2022/11/25 06:27:24;;;;;;;46.50;20.75;;;;;;;3.81;89.38;98643.34;1648628;87;25769;-82
2022/11/25 06:29:51;;;;;;;40.48;19.95;;;;;;;3.78;89.52;98643.35;1657810;86;25858;-80
2022/11/25 06:32:17;;;;;;;46.37;21.45;;;;;;;3.75;89.57;98648.75;1660579;86;27443;-80
2022/11/25 06:34:43;;;;;;;48.73;22.25;;;;;;;3.77;89.69;98652.55;1660454;86;25715;-80
2022/11/25 06:37:10;;;;;;;43.45;21.33;;;;;;;3.77;89.78;98655.25;1660597;86;25677;-81
2022/11/25 06:39:36;;;;;;;48.30;22.90;;;;;;;3.80;89.74;98656.08;1660504;85;25687;-81
2022/11/25 06:42:02;;;;;;;46.65;22.32;;;;;;;3.82;89.80;98651.20;1660484;86;25473;-81
2022/11/25 06:44:29;;;;;;;48.28;22.07;;;;;;;3.86;89.88;98653.65;1660425;86;27460;-82
2022/11/25 06:46:55;;;;;;;46.95;25.20;;;;;;;3.87;89.73;98657.19;1660475;86;25522;-81
2022/11/25 06:49:21;;;;;;;43.85;21.80;;;;;;;3.91;89.93;98656.91;1660449;86;25678;-81
2022/11/25 06:51:49;;;;;;;43.98;22.13;;;;;;;3.96;89.93;98658.81;1660420;86;25641;-80
2022/11/25 06:54:16;;;;;;;54.10;26.70;;;;;;;4.01;89.88;98662.89;1660592;86;25640;-80
2022/11/25 06:56:42;;;;;;;65.57;31.07;;;;;;;4.05;89.79;98661.80;1660648;86;27505;-81
2022/11/25 06:59:08;;;;;;;49.05;24.47;;;;;;;4.09;89.69;98665.62;1660416;86;25432;-81
2022/11/25 07:01:35;;;;;;;46.55;23.47;;;;;;;4.14;89.79;98667.78;1660456;86;25740;-80
2022/11/25 07:04:04;;;;;;;54.75;24.75;;;;;;;4.18;89.42;98669.42;1660473;86;25678;-82
2022/11/25 07:06:32;;;;;;;51.95;24.65;;;;;;;4.15;89.25;98672.67;1660640;86;25432;-80
2022/11/25 07:08:59;;;;;;;43.60;21.68;;;;;;;4.10;89.50;98677.55;1660158;86;28369;-80
2022/11/25 07:11:32;;;;;;;45.55;21.12;;;;;;;4.08;89.64;98683.77;1660465;86;25808;-80
2022/11/25 07:14:02;;;;;;;45.48;22.37;;;;;;;4.09;89.68;98680.53;1659430;86;25501;-80
2022/11/25 07:16:30;;;;;;;42.95;21.23;;;;;;;4.04;89.66;98677.27;1660525;86;25714;-78
2022/11/25 07:19:00;;;;;;;43.92;22.80;;;;;;;4.03;89.66;98676.98;1660413;86;25478;-79
2022/11/25 07:21:29;;;;;;;46.10;22.50;;;;;;;4.00;89.57;98675.63;1660319;86;27372;-79
2022/11/25 07:23:58;;;;;;;42.85;20.62;;;;;;;4.01;89.70;98680.52;1660104;86;25673;-79
2022/11/25 07:26:28;;;;;;;44.60;20.75;;;;;;;4.02;89.80;98682.14;1660460;86;25497;-78
2022/11/25 07:29:05;;;;;;;40.60;20.20;;;;;;;4.04;89.77;98683.23;1658803;85;32762;-79
2022/11/25 07:31:36;;;;;;;42.95;21.52;;;;;;;4.05;89.84;98684.31;1653764;86;25671;-79
2022/11/25 07:34:07;;;;;;;41.75;19.45;;;;;;;4.05;90.03;98687.55;1653778;86;27430;-79
2022/11/25 07:36:35;;;;;;;44.85;20.10;;;;;;;4.06;89.88;98694.06;1653165;86;25625;-78
2022/11/25 07:39:06;;;;;;;40.78;20.35;;;;;;;4.10;89.85;98693.00;1653806;86;25796;-80
2022/11/25 07:41:32;;;;;;;;;;;;;;;4.12;89.81;98690.84;1656044;86;25728;-78
2022/11/25 07:44:02;;;;;;;41.80;20.92;;;;;;;4.16;89.51;98696.52;1653783;86;25427;-79
2022/11/25 07:46:35;;;;;;;30.25;15.43;;;;;;;4.21;89.78;98695.18;1653761;86;28312;-80
2022/11/25 07:49:06;;;;;;;36.60;17.75;;;;;;;4.24;89.39;98691.92;1653559;86;25863;-80
2022/11/25 07:51:36;;;;;;;36.65;17.95;;;;;;;4.24;89.34;98692.75;1653847;86;34942;-81
2022/11/25 07:54:06;;;;;;;40.60;18.65;;;;;;;4.26;89.37;98699.27;1653820;86;25733;-80
2022/11/25 07:56:35;;;;;;;38.20;19.02;;;;;;;4.25;89.36;98694.38;1653722;86;25967;-81
2022/11/25 07:59:03;;;;;;;48.33;21.12;;;;;;;4.26;89.54;98699.27;1653615;86;27422;-82
2022/11/25 08:01:29;;;;;;;37.98;17.50;;;;;;;4.21;89.52;98693.29;1653627;86;25658;-82
2022/11/25 08:03:56;;;;;;;42.40;20.68;;;;;;;4.19;89.59;98700.05;1653664;86;25717;-80
2022/11/25 08:06:27;;;;;;;37.67;18.55;;;;;;;4.21;89.72;98704.67;1653599;86;25676;-81
2022/11/25 08:08:56;;;;;;;41.48;19.40;;;;;;;4.19;89.48;98703.59;1653762;85;25677;-82
2022/11/25 08:11:26;;;;;;;37.75;17.77;;;;;;;4.20;89.68;98702.49;1653982;86;27375;-80
2022/11/25 08:13:53;;;;;;;39.95;18.92;;;;;;;4.20;89.54;98709.84;1653763;86;25498;-81
2022/11/25 08:16:23;;;;;;;39.33;18.77;;;;;;;4.20;89.62;98711.98;1653773;86;25436;-80
2022/11/25 08:18:50;;;;;;;44.63;21.82;;;;;;;4.24;89.81;98708.20;1653564;86;25700;-80
2022/11/25 08:21:18;;;;;;;38.33;18.05;;;;;;;4.31;89.99;98711.45;1653667;86;25684;-80
2022/11/25 08:23:47;;;;;;;38.30;18.55;;;;;;;4.35;89.62;98715.81;1653290;86;27652;-81
2022/11/25 08:26:18;;;;;;;37.63;18.40;;;;;;;4.43;89.74;98710.39;1653262;86;25696;-78
2022/11/25 08:28:46;;;;;;;36.53;18.70;;;;;;;4.50;89.79;98711.74;1653752;85;25795;-82
2022/11/25 08:31:20;;;;;;;32.65;15.18;;;;;;;4.61;89.81;98718.52;1653324;86;25793;-82
2022/11/25 08:33:47;;;;;;;35.15;17.27;;;;;;;4.66;89.11;98714.42;1653847;86;25795;-82
2022/11/25 08:36:15;;;;;;;35.00;16.42;;;;;;;4.67;88.73;98716.61;1653562;86;27490;-79
2022/11/25 08:38:43;;;;;;;29.18;14.68;;;;;;;4.69;88.65;98719.30;1653605;85;25714;-82
2022/11/25 08:41:15;;;;;;;34.73;17.20;;;;;;;4.67;88.52;98724.22;1653593;86;25530;-79
2022/11/25 08:43:42;;;;;;;38.45;17.45;;;;;;;4.66;88.52;98717.70;1653726;86;25699;-80
2022/11/25 08:46:12;;;;;;;56.68;23.83;;;;;;;4.66;88.81;98723.13;1653693;86;25742;-81
2022/11/25 08:48:39;;;;;;;38.50;19.12;;;;;;;4.68;89.17;98727.72;1653782;86;27514;-81
2022/11/25 08:51:10;;;;;;;45.00;21.17;;;;;;;4.66;89.02;98732.06;1653186;86;25707;-82
2022/11/25 08:53:39;;;;;;;31.87;17.85;;;;;;;4.69;89.33;98728.02;1653656;86;25728;-81
2022/11/25 08:56:06;;;;;;;37.23;18.67;;;;;;;4.71;89.22;98728.00;1655532;85;25794;-78
2022/11/25 08:58:33;;;;;;;42.58;19.20;;;;;;;4.75;89.27;98732.36;1653407;86;25431;-76
2022/11/25 09:01:00;;;;;;;38.42;19.87;;;;;;;4.78;89.10;98735.88;1653738;86;27546;-78
2022/11/25 09:03:27;;;;;;;37.80;19.00;;;;;;;4.83;89.18;98735.86;1653437;86;26078;-81
2022/11/25 09:05:54;;;;;;;39.42;19.80;;;;;;;4.90;89.11;98747.81;1653535;86;25605;-81
2022/11/25 09:08:20;;;;;;;37.15;18.82;;;;;;;4.94;88.94;98735.30;1653617;86;25695;-82
2022/11/25 09:10:46;;;;;;;37.05;17.67;;;;;;;4.96;88.91;98739.10;1653608;86;25483;-82
2022/11/25 09:13:13;;;;;;;37.50;17.55;;;;;;;5.00;88.81;98742.36;1653681;86;27375;-81
2022/11/25 09:15:39;;;;;;;39.05;18.57;;;;;;;5.04;89.19;98743.98;1653620;86;25513;-82
2022/11/25 09:18:08;;;;;;;37.33;18.70;;;;;;;5.11;89.04;98745.05;1653606;86;25457;-83
2022/11/25 09:20:38;;;;;;;31.45;15.72;;;;;;;5.17;88.62;98739.88;1653518;86;25423;-83
2022/11/25 09:23:08;;;;;;;36.30;18.48;;;;;;;5.20;88.02;98748.83;1653687;86;25184;-83
2022/11/25 09:25:35;;;;;;;41.83;20.62;;;;;;;5.20;87.96;98746.64;1653659;86;27319;-83
2022/11/25 09:28:02;;;;;;;37.70;19.45;;;;;;;5.22;88.39;98748.02;1653489;86;25212;-83
2022/11/25 09:30:30;;;;;;;42.62;20.60;;;;;;;5.25;88.20;98743.92;1653433;84;25275;-83
2022/11/25 09:32:57;;;;;;;39.90;20.32;;;;;;;5.26;88.19;98750.98;1653604;86;25725;-84
2022/11/25 09:35:25;;;;;;;34.35;15.75;;;;;;;5.28;88.49;98752.88;1653593;86;25233;-84
2022/11/25 09:37:55;;;;;;;40.90;18.65;;;;;;;5.30;88.08;98743.92;1653655;86;27324;-82
2022/11/25 09:40:42;;;;;;;30.10;16.27;;;;;;;5.31;88.13;98741.47;1652507;86;25747;-79
2022/11/25 09:47:00;;;;;;;34.92;16.82;;;;;;;5.39;87.68;98743.59;1622795;87;25297;-82
2022/11/25 09:50:01;;;;;;;28.40;13.85;;;;;;;5.50;87.98;98751.17;1686498;84;25194;-84
2022/11/25 09:52:41;;;;;;;35.50;16.40;;;;;;;5.55;87.05;98740.83;1686384;84;27496;-83
2022/11/25 09:55:22;;;;;;;39.30;17.92;;;;;;;5.62;87.67;98735.89;1673452;84;34719;-80
2022/11/25 09:57:55;;;;;;;;;;;;;;;5.75;87.57;98743.18;1692944;84;25469;-79
2022/11/25 10:00:23;;;;;;;28.23;13.88;;;;;;;5.87;87.52;98739.59;1690660;84;25685;-85
2022/11/25 10:03:20;;;;;;;28.60;14.87;;;;;;;5.94;86.58;98736.57;1690349;84;25213;-82
2022/11/25 10:06:22;;;;;;;30.45;15.72;;;;;;;5.98;86.39;98731.36;1690724;84;27450;-86
2022/11/25 10:08:54;;;;;;;33.25;16.90;;;;;;;6.07;87.20;98735.72;1690225;84;25196;-83
2022/11/25 10:11:55;;;;;;;37.20;17.48;;;;;;;6.13;86.65;98735.95;1690206;84;25268;-86
2022/11/25 10:14:50;;;;;;;63.65;26.82;;;;;;;6.22;86.94;98736.95;1690935;84;25859;-85
2022/11/25 10:17:43;;;;;;;266.20;104.58;;;;;;;6.22;85.77;98735.59;1690710;84;25229;-85
2022/11/25 10:20:17;;;;;;;390.00;209.15;;;;;;;6.23;85.99;98737.23;1690610;84;27146;-85
2022/11/25 10:22:48;;;;;;;249.32;61.55;;;;;;;6.29;86.32;98743.45;1690623;83;25686;-83
2022/11/25 10:25:20;;;;;;;;;;;;;;;6.32;85.97;98748.33;1689974;84;25657;-85
2022/11/25 10:28:16;;;;;;;277.77;63.98;;;;;;;6.38;86.39;98751.81;1690082;84;25680;-84
2022/11/25 10:31:12;;;;;;;178.80;43.90;;;;;;;6.45;86.05;98746.85;1709255;83;25700;-84
2022/11/25 10:33:57;;;;;;;142.32;38.02;;;;;;;6.52;85.73;98744.64;1723002;83;28703;-83
2022/11/25 10:36:31;;;;;;;278.15;61.35;;;;;;;6.63;85.52;98738.56;1722941;83;25797;-84
2022/11/25 10:39:25;;;;;;;262.95;60.63;;;;;;;6.71;85.44;98743.92;1723360;83;25661;-83
2022/11/25 10:42:02;;;;;;;193.22;46.55;;;;;;;6.75;85.62;98740.09;1722924;83;26579;-82
2022/11/25 10:44:35;;;;;;;116.30;31.55;;;;;;;6.81;85.02;98745.76;1722765;83;25628;-82
2022/11/25 10:47:37;;;;;;;185.63;47.33;;;;;;;6.79;84.43;98746.58;1718225;83;28148;-83
2022/11/25 10:50:39;;;;;;;163.45;42.98;;;;;;;6.80;84.98;98740.59;1702970;83;25446;-83
2022/11/25 10:53:23;;;;;;;144.97;38.70;;;;;;;6.78;84.53;98743.61;1717962;83;25629;-81
2022/11/25 10:56:03;;;;;;;190.32;48.28;;;;;;;6.75;84.22;98746.90;1716056;83;25737;-79
2022/11/25 10:58:34;;;;;;;81.67;27.27;;;;;;;6.77;84.43;98750.16;1718439;83;25597;-81
2022/11/25 11:01:24;;;;;;;162.00;42.90;;;;;;;6.85;84.81;98748.16;1718241;83;28242;-77
2022/11/25 11:04:07;;;;;;;180.80;46.10;;;;;;;6.96;84.78;98748.88;1717719;83;25434;-78
2022/11/25 11:06:41;;;;;;;107.60;32.60;;;;;;;7.03;84.59;98743.90;1717757;83;25511;-80
2022/11/25 11:09:28;;;;;;;189.97;49.18;;;;;;;7.10;84.17;98747.66;1717992;83;26630;-74
2022/11/25 11:11:54;;;;;;;139.00;41.40;;;;;;;7.19;84.21;98752.48;1712514;83;25586;-80
2022/11/25 11:14:21;;;;;;;87.72;28.25;;;;;;;7.22;83.66;98749.16;1718268;83;27569;-77
2022/11/25 11:16:55;;;;;;;108.42;35.00;;;;;;;7.25;83.57;98745.31;1718015;83;25846;-77
2022/11/25 11:19:26;;;;;;;104.30;34.13;;;;;;;7.30;83.42;98749.08;1718170;83;25894;-77
2022/11/25 11:21:54;;;;;;;89.37;30.35;;;;;;;7.22;83.30;98730.90;1717699;83;25760;-78
2022/11/25 11:24:36;;;;;;;73.65;26.42;;;;;;;7.22;83.30;98730.90;1718085;83;25595;-77
2022/11/25 11:27:20;;;;;;;100.10;32.17;;;;;;;7.28;83.04;98741.19;1717868;83;27596;-79
2022/11/25 11:29:46;;;;;;;103.60;32.48;;;;;;;7.34;83.20;98737.88;1717845;83;26607;-78
2022/11/25 11:32:22;;;;;;;67.22;25.20;;;;;;;7.40;83.54;98739.44;1718178;83;25689;-79
2022/11/25 11:35:00;;;;;;;35.55;17.15;;;;;;;7.43;83.80;98735.31;1713593;83;25712;-78
2022/11/25 11:37:41;;;;;;;83.50;28.17;;;;;;;7.50;83.69;98743.95;1717984;83;25498;-79
2022/11/25 11:40:28;;;;;;;57.08;22.37;;;;;;;7.64;83.71;98744.06;1717955;83;28378;-78
2022/11/25 11:43:24;;;;;;;36.73;15.93;;;;;;;7.69;83.17;98748.64;1717488;83;25710;-76
2022/11/25 11:46:22;;;;;;;29.42;14.50;;;;;;;7.73;82.42;98743.67;1718146;83;25657;-78
2022/11/25 11:49:15;;;;;;;56.98;22.10;;;;;;;7.76;82.56;98743.63;1717592;83;26532;-80
2022/11/25 11:51:59;;;;;;;62.35;23.00;;;;;;;7.82;82.66;98736.18;1717951;83;25670;-78